sensor_id;sensor_type;location;lat;lon;timestamp;temperature;humidity
2314;DHT22;42279;51.388;7.000;2023-05-02T05:03:58;11.80;99.90
2314;DHT22;42279;51.388;7.000;2023-05-02T05:06:24;12.00;99.90
2314;DHT22;42279;51.388;7.000;2023-05-02T05:08:49;12.00;99.90
2314;DHT22;42279;51.388;7.000;2023-05-02T05:11:15;12.30;99.90
2314;DHT22;42279;51.388;7.000;2023-05-02T05:13:41;12.70;99.90
2314;DHT22;42279;51.388;7.000;2023-05-02T05:16:07;12.80;99.90
2314;DHT22;42279;51.388;7.000;2023-05-02T05:18:33;12.10;99.90
2314;DHT22;42279;51.388;7.000;2023-05-02T05:21:08;12.00;99.90
2314;DHT22;42279;51.388;7.000;2023-05-02T05:23:34;12.30;99.90
2314;DHT22;42279;51.388;7.000;2023-05-02T05:26:14;12.40;99.90
2314;DHT22;42279;51.388;7.000;2023-05-02T05:28:40;11.20;99.90
2314;DHT22;42279;51.388;7.000;2023-05-02T05:31:07;11.70;99.90
2314;DHT22;42279;51.388;7.000;2023-05-02T05:33:34;11.80;99.90
2314;DHT22;42279;51.388;7.000;2023-05-02T05:36:04;12.30;99.90
2314;DHT22;42279;51.388;7.000;2023-05-02T05:38:30;11.50;99.90
2314;DHT22;42279;51.388;7.000;2023-05-02T05:53:10;11.50;99.90
2314;DHT22;42279;51.388;7.000;2023-05-02T05:55:35;11.30;99.90
2314;DHT22;42279;51.388;7.000;2023-05-02T05:58:03;10.90;99.90
2314;DHT22;42279;51.388;7.000;2023-05-02T06:10:23;11.60;99.90
2314;DHT22;42279;51.388;7.000;2023-05-02T06:12:49;11.50;99.90
2314;DHT22;42279;51.388;7.000;2023-05-02T06:29:52;11.70;99.90
2314;DHT22;42279;51.388;7.000;2023-05-02T06:32:18;11.90;99.90
2314;DHT22;42279;51.388;7.000;2023-05-02T06:34:44;11.90;99.90
2314;DHT22;42279;51.388;7.000;2023-05-02T06:37:09;11.70;99.90
2314;DHT22;42279;51.388;7.000;2023-05-02T06:39:36;12.70;99.90
2314;DHT22;42279;51.388;7.000;2023-05-02T06:42:01;12.40;99.90
2314;DHT22;42279;51.388;7.000;2023-05-02T06:44:27;11.70;99.90
2314;DHT22;42279;51.388;7.000;2023-05-02T06:46:53;12.50;99.90
2314;DHT22;42279;51.388;7.000;2023-05-02T06:49:20;12.20;99.90
2314;DHT22;42279;51.388;7.000;2023-05-02T06:51:46;12.10;99.90
2314;DHT22;42279;51.388;7.000;2023-05-02T06:54:11;12.00;99.90
2314;DHT22;42279;51.388;7.000;2023-05-02T06:56:37;12.00;99.90
2314;DHT22;42279;51.388;7.000;2023-05-02T06:59:03;13.10;99.90
2314;DHT22;42279;51.388;7.000;2023-05-02T07:01:28;12.50;99.90
2314;DHT22;42279;51.388;7.000;2023-05-02T07:03:54;12.30;99.90
2314;DHT22;42279;51.388;7.000;2023-05-02T07:06:19;12.80;99.90
2314;DHT22;42279;51.388;7.000;2023-05-02T07:08:46;12.30;99.90
2314;DHT22;42279;51.388;7.000;2023-05-02T07:11:11;13.00;99.90
2314;DHT22;42279;51.388;7.000;2023-05-02T07:13:37;12.20;99.90
2314;DHT22;42279;51.388;7.000;2023-05-02T07:16:02;12.60;99.90
2314;DHT22;42279;51.388;7.000;2023-05-02T07:18:28;12.40;99.90
2314;DHT22;42279;51.388;7.000;2023-05-02T07:20:53;12.80;99.90
2314;DHT22;42279;51.388;7.000;2023-05-02T07:23:19;12.40;99.90
2314;DHT22;42279;51.388;7.000;2023-05-02T07:25:49;12.80;99.90
2314;DHT22;42279;51.388;7.000;2023-05-02T07:28:14;12.20;99.90
2314;DHT22;42279;51.388;7.000;2023-05-02T07:30:40;12.40;99.90
2314;DHT22;42279;51.388;7.000;2023-05-02T07:33:06;13.00;99.90
2314;DHT22;42279;51.388;7.000;2023-05-02T07:35:31;12.90;99.90
2314;DHT22;42279;51.388;7.000;2023-05-02T07:37:57;12.50;99.90
2314;DHT22;42279;51.388;7.000;2023-05-02T07:40:23;12.20;99.90
2314;DHT22;42279;51.388;7.000;2023-05-02T07:42:48;12.20;99.90
2314;DHT22;42279;51.388;7.000;2023-05-02T07:45:15;12.60;99.90
2314;DHT22;42279;51.388;7.000;2023-05-02T07:47:40;12.30;99.90
2314;DHT22;42279;51.388;7.000;2023-05-02T07:50:06;12.00;99.90
2314;DHT22;42279;51.388;7.000;2023-05-02T07:52:33;12.10;99.90
2314;DHT22;42279;51.388;7.000;2023-05-02T07:54:59;12.20;99.90
2314;DHT22;42279;51.388;7.000;2023-05-02T07:57:25;12.00;99.90
2314;DHT22;42279;51.388;7.000;2023-05-02T07:59:51;11.70;99.90
2314;DHT22;42279;51.388;7.000;2023-05-02T08:02:16;12.30;99.90
2314;DHT22;42279;51.388;7.000;2023-05-02T08:07:11;11.50;99.90
2314;DHT22;42279;51.388;7.000;2023-05-02T08:09:36;11.90;99.90
2314;DHT22;42279;51.388;7.000;2023-05-02T08:12:02;11.80;99.90
2314;DHT22;42279;51.388;7.000;2023-05-02T08:14:28;11.80;99.90
2314;DHT22;42279;51.388;7.000;2023-05-02T08:16:53;12.20;99.90
2314;DHT22;42279;51.388;7.000;2023-05-02T08:19:19;11.80;99.90
2314;DHT22;42279;51.388;7.000;2023-05-02T08:21:47;12.50;99.90
2314;DHT22;42279;51.388;7.000;2023-05-02T08:24:13;12.00;99.90
2314;DHT22;42279;51.388;7.000;2023-05-02T08:26:38;11.70;99.90
2314;DHT22;42279;51.388;7.000;2023-05-02T08:29:04;11.80;99.90
2314;DHT22;42279;51.388;7.000;2023-05-02T08:31:30;12.20;99.90
2314;DHT22;42279;51.388;7.000;2023-05-02T08:33:59;11.80;99.90
2314;DHT22;42279;51.388;7.000;2023-05-02T08:36:25;12.00;99.90
2314;DHT22;42279;51.388;7.000;2023-05-02T08:38:52;12.10;99.90
2314;DHT22;42279;51.388;7.000;2023-05-02T08:43:47;12.40;99.90
2314;DHT22;42279;51.388;7.000;2023-05-02T08:46:14;12.60;99.90
2314;DHT22;42279;51.388;7.000;2023-05-02T08:48:41;12.70;99.90
2314;DHT22;42279;51.388;7.000;2023-05-02T08:51:12;12.90;99.90
2314;DHT22;42279;51.388;7.000;2023-05-02T08:53:38;12.80;99.90
2314;DHT22;42279;51.388;7.000;2023-05-02T08:56:08;12.80;99.90
2314;DHT22;42279;51.388;7.000;2023-05-02T08:58:37;13.30;99.90
2314;DHT22;42279;51.388;7.000;2023-05-02T09:01:09;13.20;99.90
2314;DHT22;42279;51.388;7.000;2023-05-02T09:03:38;12.90;99.90
2314;DHT22;42279;51.388;7.000;2023-05-02T09:06:06;12.90;99.90
2314;DHT22;42279;51.388;7.000;2023-05-02T09:08:32;12.50;99.90
2314;DHT22;42279;51.388;7.000;2023-05-02T09:10:59;11.80;99.90
2314;DHT22;42279;51.388;7.000;2023-05-02T09:13:38;11.90;99.90
2314;DHT22;42279;51.388;7.000;2023-05-02T09:16:09;12.60;99.90
2314;DHT22;42279;51.388;7.000;2023-05-02T09:18:40;12.30;99.90
2314;DHT22;42279;51.388;7.000;2023-05-02T09:23:41;11.80;99.90
2314;DHT22;42279;51.388;7.000;2023-05-02T09:26:17;12.00;99.90
2314;DHT22;42279;51.388;7.000;2023-05-02T09:28:45;12.50;99.90
2314;DHT22;42279;51.388;7.000;2023-05-02T09:31:15;13.20;99.90
2314;DHT22;42279;51.388;7.000;2023-05-02T09:33:42;13.20;99.90
2314;DHT22;42279;51.388;7.000;2023-05-02T09:36:14;13.50;99.90
2314;DHT22;42279;51.388;7.000;2023-05-02T09:38:41;13.60;99.90
2314;DHT22;42279;51.388;7.000;2023-05-02T09:41:07;13.70;99.90
2314;DHT22;42279;51.388;7.000;2023-05-02T09:46:02;13.80;99.90
2314;DHT22;42279;51.388;7.000;2023-05-02T09:48:29;15.00;99.90
2314;DHT22;42279;51.388;7.000;2023-05-02T09:50:56;14.90;99.90
2314;DHT22;42279;51.388;7.000;2023-05-02T09:53:26;15.10;99.90
2314;DHT22;42279;51.388;7.000;2023-05-02T09:56:05;13.80;99.90
2314;DHT22;42279;51.388;7.000;2023-05-02T09:58:30;13.70;99.90
2314;DHT22;42279;51.388;7.000;2023-05-02T10:00:57;14.40;99.90
2314;DHT22;42279;51.388;7.000;2023-05-02T10:03:24;13.50;99.90
2314;DHT22;42279;51.388;7.000;2023-05-02T10:05:51;13.60;99.90
2314;DHT22;42279;51.388;7.000;2023-05-02T10:08:19;13.10;99.90
2314;DHT22;42279;51.388;7.000;2023-05-02T10:10:56;13.50;99.90
2314;DHT22;42279;51.388;7.000;2023-05-02T10:13:24;13.60;99.90
2314;DHT22;42279;51.388;7.000;2023-05-02T10:16:02;14.50;99.90
2314;DHT22;42279;51.388;7.000;2023-05-02T10:18:55;14.40;99.90
2314;DHT22;42279;51.388;7.000;2023-05-02T10:21:26;15.30;99.90
2314;DHT22;42279;51.388;7.000;2023-05-02T10:23:52;15.20;99.90
2314;DHT22;42279;51.388;7.000;2023-05-02T10:26:18;15.70;99.90
2314;DHT22;42279;51.388;7.000;2023-05-02T10:28:46;16.80;99.90
2314;DHT22;42279;51.388;7.000;2023-05-02T10:31:13;17.30;99.90
2314;DHT22;42279;51.388;7.000;2023-05-02T10:33:39;17.20;99.90
2314;DHT22;42279;51.388;7.000;2023-05-02T10:36:07;17.70;99.90
2314;DHT22;42279;51.388;7.000;2023-05-02T10:38:35;17.50;99.90
2314;DHT22;42279;51.388;7.000;2023-05-02T10:41:06;17.10;99.90
2314;DHT22;42279;51.388;7.000;2023-05-02T10:43:34;16.70;99.90
2314;DHT22;42279;51.388;7.000;2023-05-02T10:46:00;18.10;99.90
2314;DHT22;42279;51.388;7.000;2023-05-02T10:48:28;17.40;99.90
2314;DHT22;42279;51.388;7.000;2023-05-02T10:51:00;17.30;99.90
2314;DHT22;42279;51.388;7.000;2023-05-02T10:53:30;16.40;99.90
2314;DHT22;42279;51.388;7.000;2023-05-02T10:58:37;16.20;99.90
2314;DHT22;42279;51.388;7.000;2023-05-02T11:04:06;15.90;99.90
2314;DHT22;42279;51.388;7.000;2023-05-02T11:06:34;16.00;99.90
2314;DHT22;42279;51.388;7.000;2023-05-02T11:11:44;15.60;99.90
2314;DHT22;42279;51.388;7.000;2023-05-02T11:14:12;15.10;99.90
2314;DHT22;42279;51.388;7.000;2023-05-02T11:19:23;13.50;99.90
2314;DHT22;42279;51.388;7.000;2023-05-02T11:21:49;13.50;99.90
2314;DHT22;42279;51.388;7.000;2023-05-02T11:24:37;14.80;99.90
2314;DHT22;42279;51.388;7.000;2023-05-02T11:30:04;13.60;99.90
2314;DHT22;42279;51.388;7.000;2023-05-02T11:35:26;14.70;99.90
2314;DHT22;42279;51.388;7.000;2023-05-02T11:37:59;14.00;99.90
2314;DHT22;42279;51.388;7.000;2023-05-02T11:40:26;14.80;99.90
2314;DHT22;42279;51.388;7.000;2023-05-02T11:42:53;14.20;99.90
2314;DHT22;42279;51.388;7.000;2023-05-02T11:45:19;15.70;99.90
2314;DHT22;42279;51.388;7.000;2023-05-02T11:47:46;15.00;99.90
2314;DHT22;42279;51.388;7.000;2023-05-02T11:50:16;16.10;99.90
2314;DHT22;42279;51.388;7.000;2023-05-02T11:52:43;16.40;99.90
2314;DHT22;42279;51.388;7.000;2023-05-02T11:55:13;16.90;99.90
2314;DHT22;42279;51.388;7.000;2023-05-02T11:57:39;17.00;99.90
2314;DHT22;42279;51.388;7.000;2023-05-02T12:00:05;17.30;99.90
2314;DHT22;42279;51.388;7.000;2023-05-02T12:02:40;16.70;99.90
2314;DHT22;42279;51.388;7.000;2023-05-02T12:05:07;17.20;99.90
2314;DHT22;42279;51.388;7.000;2023-05-02T12:07:37;17.90;97.50
2314;DHT22;42279;51.388;7.000;2023-05-02T13:04:19;19.00;71.90
2314;DHT22;42279;51.388;7.000;2023-05-02T13:06:45;18.90;72.50
2314;DHT22;42279;51.388;7.000;2023-05-02T13:09:10;18.90;72.00
2314;DHT22;42279;51.388;7.000;2023-05-02T13:11:36;18.60;74.10
2314;DHT22;42279;51.388;7.000;2023-05-02T13:14:03;18.90;72.60
2314;DHT22;42279;51.388;7.000;2023-05-02T13:16:30;18.20;76.00
2314;DHT22;42279;51.388;7.000;2023-05-02T13:18:55;18.60;73.50
2314;DHT22;42279;51.388;7.000;2023-05-02T13:21:21;18.60;74.50
2314;DHT22;42279;51.388;7.000;2023-05-02T13:23:47;18.80;74.20
2314;DHT22;42279;51.388;7.000;2023-05-02T13:26:14;20.10;76.70
2314;DHT22;42279;51.388;7.000;2023-05-02T14:05:18;17.30;88.50
2314;DHT22;42279;51.388;7.000;2023-05-02T16:24:23;15.10;85.80
2314;DHT22;42279;51.388;7.000;2023-05-02T16:26:48;15.20;83.30
2314;DHT22;42279;51.388;7.000;2023-05-02T16:29:14;15.30;86.40
2314;DHT22;42279;51.388;7.000;2023-05-02T16:31:39;15.60;84.30
2314;DHT22;42279;51.388;7.000;2023-05-02T16:34:05;15.30;83.70
2314;DHT22;42279;51.388;7.000;2023-05-02T16:36:31;14.90;83.90
2314;DHT22;42279;51.388;7.000;2023-05-02T16:38:57;15.10;63.50
2314;DHT22;42279;51.388;7.000;2023-05-02T16:41:23;15.20;64.10
2314;DHT22;42279;51.388;7.000;2023-05-02T16:43:49;15.90;66.20
2314;DHT22;42279;51.388;7.000;2023-05-02T16:46:14;15.10;66.70
2314;DHT22;42279;51.388;7.000;2023-05-02T16:48:40;14.70;89.90
2314;DHT22;42279;51.388;7.000;2023-05-02T16:53:32;14.60;88.30
2314;DHT22;42279;51.388;7.000;2023-05-02T16:55:57;14.70;88.20
2314;DHT22;42279;51.388;7.000;2023-05-02T16:58:24;15.00;67.60
2314;DHT22;42279;51.388;7.000;2023-05-02T17:00:49;15.60;67.90
2314;DHT22;42279;51.388;7.000;2023-05-02T17:03:15;15.00;67.40
2314;DHT22;42279;51.388;7.000;2023-05-02T17:05:41;14.90;87.60
2314;DHT22;42279;51.388;7.000;2023-05-02T17:08:06;15.30;68.00
2314;DHT22;42279;51.388;7.000;2023-05-02T17:10:32;14.60;82.20
2314;DHT22;42279;51.388;7.000;2023-05-02T17:12:57;14.70;59.30
2314;DHT22;42279;51.388;7.000;2023-05-02T17:15:23;15.00;60.40
2314;DHT22;42279;51.388;7.000;2023-05-02T17:17:49;14.50;60.60
2314;DHT22;42279;51.388;7.000;2023-05-02T17:20:15;14.60;63.00
2314;DHT22;42279;51.388;7.000;2023-05-02T17:22:41;14.60;84.80
2314;DHT22;42279;51.388;7.000;2023-05-02T17:25:08;14.60;89.70
2314;DHT22;42279;51.388;7.000;2023-05-02T17:27:35;14.50;65.30
2314;DHT22;42279;51.388;7.000;2023-05-02T17:30:01;15.70;70.90
2314;DHT22;42279;51.388;7.000;2023-05-02T17:32:26;15.20;71.30
2314;DHT22;42279;51.388;7.000;2023-05-02T17:34:52;14.70;69.90
2314;DHT22;42279;51.388;7.000;2023-05-02T17:37:18;16.20;76.20
2314;DHT22;42279;51.388;7.000;2023-05-02T17:39:43;15.20;74.70
2314;DHT22;42279;51.388;7.000;2023-05-02T17:42:10;14.80;74.30
2314;DHT22;42279;51.388;7.000;2023-05-02T17:44:35;14.80;70.80
2314;DHT22;42279;51.388;7.000;2023-05-02T17:47:02;14.40;73.60
2314;DHT22;42279;51.388;7.000;2023-05-02T17:49:27;14.40;92.50
2314;DHT22;42279;51.388;7.000;2023-05-02T17:51:53;14.30;76.00
2314;DHT22;42279;51.388;7.000;2023-05-02T17:54:19;14.30;77.00
2314;DHT22;42279;51.388;7.000;2023-05-02T17:56:45;14.60;74.80
2314;DHT22;42279;51.388;7.000;2023-05-02T17:59:10;13.90;93.10
2314;DHT22;42279;51.388;7.000;2023-05-02T18:01:37;14.00;79.80
2314;DHT22;42279;51.388;7.000;2023-05-02T18:08:56;13.70;73.40
2314;DHT22;42279;51.388;7.000;2023-05-02T18:11:22;13.70;75.10
2314;DHT22;42279;51.388;7.000;2023-05-02T18:13:51;14.50;78.90
2314;DHT22;42279;51.388;7.000;2023-05-02T18:21:20;13.20;94.30
2314;DHT22;42279;51.388;7.000;2023-05-02T18:23:45;14.60;81.50
2314;DHT22;42279;51.388;7.000;2023-05-02T18:26:11;13.30;84.20
2314;DHT22;42279;51.388;7.000;2023-05-02T18:28:38;13.90;82.40
2314;DHT22;42279;51.388;7.000;2023-05-02T18:31:03;13.50;83.50
